Terminal Aerodrome Forecast
Issued by NWS Shreveport, LA

Home | Current Version | Previous Version | Text Only | Print | Product List | Glossary On
Versions: 1 2 3 4 5 6 7 8 9 10 11 12 13 14 15
000
FTUS44 KSHV 210500
TAFSHV
TAF
KSHV 210522Z 2106/2206 VRB03KT P6SM SCT060 OVC100
     FM210900 19004KT P6SM OVC060
     FM211600 20008KT P6SM VCSH BKN050 BKN100 OVC250
     FM211900 21010KT P6SM VCTS SCT050CB BKN120 BKN250
     FM220300 27007KT 5SM -TSRA BKN050CB OVC100=

USA.gov is the U.S. government's official web portal to all federal, state and local government web resources and services.